sensor_id;sensor_type;location;lat;lon;timestamp;P1;durP1;ratioP1;P2;durP2;ratioP2
6580;SDS011;3324;50.796;7.228;2022-10-16T00:00:28;10.50;;;10.00;;
6580;SDS011;3324;50.796;7.228;2022-10-16T00:02:54;10.70;;;10.20;;
6580;SDS011;3324;50.796;7.228;2022-10-16T00:05:20;10.30;;;10.00;;
6580;SDS011;3324;50.796;7.228;2022-10-16T00:07:46;10.30;;;10.00;;
6580;SDS011;3324;50.796;7.228;2022-10-16T00:10:11;10.30;;;10.00;;
6580;SDS011;3324;50.796;7.228;2022-10-16T00:12:37;8.90;;;8.50;;
6580;SDS011;3324;50.796;7.228;2022-10-16T00:15:02;8.50;;;8.30;;
6580;SDS011;3324;50.796;7.228;2022-10-16T00:17:30;7.40;;;7.30;;
6580;SDS011;3324;50.796;7.228;2022-10-16T00:19:55;6.50;;;6.40;;
6580;SDS011;3324;50.796;7.228;2022-10-16T00:22:21;2.57;;;2.57;;
6580;SDS011;3324;50.796;7.228;2022-10-16T00:24:47;0.30;;;0.20;;
6580;SDS011;3324;50.796;7.228;2022-10-16T00:27:13;2.00;;;0.60;;
6580;SDS011;3324;50.796;7.228;2022-10-16T00:29:38;2.20;;;1.60;;
6580;SDS011;3324;50.796;7.228;2022-10-16T00:32:04;0.50;;;0.50;;
6580;SDS011;3324;50.796;7.228;2022-10-16T00:34:30;5.93;;;5.83;;
6580;SDS011;3324;50.796;7.228;2022-10-16T00:36:55;3.25;;;3.05;;
6580;SDS011;3324;50.796;7.228;2022-10-16T00:39:21;7.15;;;7.05;;
6580;SDS011;3324;50.796;7.228;2022-10-16T00:41:47;9.00;;;8.80;;
6580;SDS011;3324;50.796;7.228;2022-10-16T00:47:28;10.80;;;10.30;;
6580;SDS011;3324;50.796;7.228;2022-10-16T00:52:41;8.90;;;8.70;;
6580;SDS011;3324;50.796;7.228;2022-10-16T00:55:11;8.60;;;8.40;;
6580;SDS011;3324;50.796;7.228;2022-10-16T00:57:37;8.60;;;8.40;;
6580;SDS011;3324;50.796;7.228;2022-10-16T01:00:05;10.10;;;9.80;;
6580;SDS011;3324;50.796;7.228;2022-10-16T01:02:32;10.20;;;9.90;;
6580;SDS011;3324;50.796;7.228;2022-10-16T01:04:58;9.70;;;9.30;;
6580;SDS011;3324;50.796;7.228;2022-10-16T01:12:27;10.20;;;9.90;;
6580;SDS011;3324;50.796;7.228;2022-10-16T01:15:05;10.70;;;10.30;;
6580;SDS011;3324;50.796;7.228;2022-10-16T01:31:18;10.30;;;10.00;;
6580;SDS011;3324;50.796;7.228;2022-10-16T01:33:47;10.50;;;10.10;;
6580;SDS011;3324;50.796;7.228;2022-10-16T01:36:21;10.40;;;10.10;;
6580;SDS011;3324;50.796;7.228;2022-10-16T01:38:55;10.25;;;9.95;;
6580;SDS011;3324;50.796;7.228;2022-10-16T01:41:44;10.75;;;10.40;;
6580;SDS011;3324;50.796;7.228;2022-10-16T01:46:45;9.80;;;9.50;;
6580;SDS011;3324;50.796;7.228;2022-10-16T01:49:13;8.55;;;8.35;;
6580;SDS011;3324;50.796;7.228;2022-10-16T01:51:41;8.20;;;8.10;;
6580;SDS011;3324;50.796;7.228;2022-10-16T01:54:10;8.87;;;8.67;;
6580;SDS011;3324;50.796;7.228;2022-10-16T01:56:38;8.90;;;8.70;;
6580;SDS011;3324;50.796;7.228;2022-10-16T01:59:06;8.70;;;8.50;;
6580;SDS011;3324;50.796;7.228;2022-10-16T02:01:35;8.70;;;8.50;;
6580;SDS011;3324;50.796;7.228;2022-10-16T02:04:07;9.35;;;8.95;;
6580;SDS011;3324;50.796;7.228;2022-10-16T02:06:45;8.57;;;8.38;;
6580;SDS011;3324;50.796;7.228;2022-10-16T02:09:10;9.40;;;9.00;;
6580;SDS011;3324;50.796;7.228;2022-10-16T02:11:36;8.70;;;8.50;;
6580;SDS011;3324;50.796;7.228;2022-10-16T02:14:03;8.50;;;8.30;;
6580;SDS011;3324;50.796;7.228;2022-10-16T02:16:46;9.40;;;9.00;;
6580;SDS011;3324;50.796;7.228;2022-10-16T02:19:12;8.80;;;8.40;;
6580;SDS011;3324;50.796;7.228;2022-10-16T02:21:43;8.20;;;8.10;;
6580;SDS011;3324;50.796;7.228;2022-10-16T02:24:18;8.40;;;8.20;;
6580;SDS011;3324;50.796;7.228;2022-10-16T02:27:17;7.70;;;7.60;;
6580;SDS011;3324;50.796;7.228;2022-10-16T02:29:48;7.17;;;7.07;;
6580;SDS011;3324;50.796;7.228;2022-10-16T02:32:22;8.10;;;8.00;;
6580;SDS011;3324;50.796;7.228;2022-10-16T02:34:52;7.80;;;7.70;;
6580;SDS011;3324;50.796;7.228;2022-10-16T02:37:19;7.90;;;7.80;;
6580;SDS011;3324;50.796;7.228;2022-10-16T02:39:44;6.80;;;6.70;;
6580;SDS011;3324;50.796;7.228;2022-10-16T02:42:14;7.63;;;7.53;;
6580;SDS011;3324;50.796;7.228;2022-10-16T02:44:40;7.25;;;7.15;;
6580;SDS011;3324;50.796;7.228;2022-10-16T02:47:06;7.70;;;7.60;;
6580;SDS011;3324;50.796;7.228;2022-10-16T02:49:31;7.40;;;7.10;;
6580;SDS011;3324;50.796;7.228;2022-10-16T02:51:57;5.30;;;5.20;;
6580;SDS011;3324;50.796;7.228;2022-10-16T02:54:22;8.70;;;8.50;;
6580;SDS011;3324;50.796;7.228;2022-10-16T02:56:48;7.70;;;7.60;;
6580;SDS011;3324;50.796;7.228;2022-10-16T02:59:14;7.93;;;7.63;;
6580;SDS011;3324;50.796;7.228;2022-10-16T03:01:40;8.40;;;8.20;;
6580;SDS011;3324;50.796;7.228;2022-10-16T03:04:06;7.35;;;7.25;;
6580;SDS011;3324;50.796;7.228;2022-10-16T03:06:31;8.50;;;8.30;;
6580;SDS011;3324;50.796;7.228;2022-10-16T03:08:57;9.50;;;9.10;;
6580;SDS011;3324;50.796;7.228;2022-10-16T03:11:22;8.30;;;8.10;;
6580;SDS011;3324;50.796;7.228;2022-10-16T03:13:48;7.40;;;7.30;;
6580;SDS011;3324;50.796;7.228;2022-10-16T03:16:13;7.40;;;7.30;;
6580;SDS011;3324;50.796;7.228;2022-10-16T03:18:39;9.60;;;9.20;;
6580;SDS011;3324;50.796;7.228;2022-10-16T03:21:05;7.40;;;7.30;;
6580;SDS011;3324;50.796;7.228;2022-10-16T03:23:30;8.65;;;8.45;;
6580;SDS011;3324;50.796;7.228;2022-10-16T03:25:56;9.40;;;9.00;;
6580;SDS011;3324;50.796;7.228;2022-10-16T03:28:21;8.30;;;8.10;;
6580;SDS011;3324;50.796;7.228;2022-10-16T03:30:47;9.10;;;8.90;;
6580;SDS011;3324;50.796;7.228;2022-10-16T03:33:13;8.40;;;8.20;;
6580;SDS011;3324;50.796;7.228;2022-10-16T03:35:38;9.30;;;8.90;;
6580;SDS011;3324;50.796;7.228;2022-10-16T03:38:04;8.30;;;8.10;;
6580;SDS011;3324;50.796;7.228;2022-10-16T03:40:29;8.10;;;8.00;;
6580;SDS011;3324;50.796;7.228;2022-10-16T03:42:57;8.60;;;8.40;;
6580;SDS011;3324;50.796;7.228;2022-10-16T03:45:23;8.10;;;8.00;;
6580;SDS011;3324;50.796;7.228;2022-10-16T03:47:49;8.50;;;8.30;;
6580;SDS011;3324;50.796;7.228;2022-10-16T03:50:14;9.30;;;8.90;;
6580;SDS011;3324;50.796;7.228;2022-10-16T03:52:40;8.27;;;8.10;;
6580;SDS011;3324;50.796;7.228;2022-10-16T03:55:06;8.25;;;8.10;;
6580;SDS011;3324;50.796;7.228;2022-10-16T03:57:32;8.85;;;8.65;;
6580;SDS011;3324;50.796;7.228;2022-10-16T03:59:58;8.30;;;8.10;;
6580;SDS011;3324;50.796;7.228;2022-10-16T04:02:24;9.40;;;9.00;;
6580;SDS011;3324;50.796;7.228;2022-10-16T04:04:49;8.70;;;8.50;;
6580;SDS011;3324;50.796;7.228;2022-10-16T04:07:15;8.60;;;8.40;;
6580;SDS011;3324;50.796;7.228;2022-10-16T04:09:40;8.60;;;8.40;;
6580;SDS011;3324;50.796;7.228;2022-10-16T04:12:06;9.50;;;9.10;;
6580;SDS011;3324;50.796;7.228;2022-10-16T04:14:32;9.40;;;9.00;;
6580;SDS011;3324;50.796;7.228;2022-10-16T04:16:58;8.23;;;8.03;;
6580;SDS011;3324;50.796;7.228;2022-10-16T04:19:23;8.70;;;8.50;;
6580;SDS011;3324;50.796;7.228;2022-10-16T04:21:49;9.50;;;9.10;;
6580;SDS011;3324;50.796;7.228;2022-10-16T04:24:14;8.90;;;8.70;;
6580;SDS011;3324;50.796;7.228;2022-10-16T04:26:40;8.65;;;8.45;;
6580;SDS011;3324;50.796;7.228;2022-10-16T04:29:06;9.20;;;9.00;;
6580;SDS011;3324;50.796;7.228;2022-10-16T04:31:32;10.50;;;10.00;;
6580;SDS011;3324;50.796;7.228;2022-10-16T04:33:58;9.00;;;8.80;;
6580;SDS011;3324;50.796;7.228;2022-10-16T04:38:49;10.70;;;10.40;;
6580;SDS011;3324;50.796;7.228;2022-10-16T04:41:14;9.60;;;9.20;;
6580;SDS011;3324;50.796;7.228;2022-10-16T04:46:05;10.00;;;9.70;;
6580;SDS011;3324;50.796;7.228;2022-10-16T04:48:31;10.40;;;9.90;;
6580;SDS011;3324;50.796;7.228;2022-10-16T04:53:22;10.00;;;9.70;;
6580;SDS011;3324;50.796;7.228;2022-10-16T04:55:48;9.90;;;9.60;;
6580;SDS011;3324;50.796;7.228;2022-10-16T04:58:14;10.70;;;10.20;;
6580;SDS011;3324;50.796;7.228;2022-10-16T05:00:40;10.70;;;10.20;;
6580;SDS011;3324;50.796;7.228;2022-10-16T05:03:05;10.70;;;10.40;;
6580;SDS011;3324;50.796;7.228;2022-10-16T05:05:33;11.00;;;10.40;;
6580;SDS011;3324;50.796;7.228;2022-10-16T05:07:59;11.95;;;11.35;;
6580;SDS011;3324;50.796;7.228;2022-10-16T05:10:25;9.10;;;8.90;;
6580;SDS011;3324;50.796;7.228;2022-10-16T05:12:51;10.20;;;9.90;;
6580;SDS011;3324;50.796;7.228;2022-10-16T05:15:16;9.90;;;9.60;;
6580;SDS011;3324;50.796;7.228;2022-10-16T05:17:44;9.60;;;9.30;;
6580;SDS011;3324;50.796;7.228;2022-10-16T05:20:10;9.90;;;9.60;;
6580;SDS011;3324;50.796;7.228;2022-10-16T05:22:36;10.10;;;9.80;;
6580;SDS011;3324;50.796;7.228;2022-10-16T05:25:01;11.00;;;10.40;;
6580;SDS011;3324;50.796;7.228;2022-10-16T05:27:27;10.25;;;9.95;;
6580;SDS011;3324;50.796;7.228;2022-10-16T05:29:53;10.40;;;10.10;;
6580;SDS011;3324;50.796;7.228;2022-10-16T05:34:44;10.60;;;10.10;;
6580;SDS011;3324;50.796;7.228;2022-10-16T05:37:10;11.10;;;10.70;;
6580;SDS011;3324;50.796;7.228;2022-10-16T05:39:36;10.20;;;9.90;;
6580;SDS011;3324;50.796;7.228;2022-10-16T05:44:28;9.90;;;9.60;;
6580;SDS011;3324;50.796;7.228;2022-10-16T05:49:20;10.90;;;10.40;;
6580;SDS011;3324;50.796;7.228;2022-10-16T05:51:45;9.00;;;8.80;;
6580;SDS011;3324;50.796;7.228;2022-10-16T05:54:11;10.00;;;9.70;;
6580;SDS011;3324;50.796;7.228;2022-10-16T05:56:36;10.10;;;9.60;;
6580;SDS011;3324;50.796;7.228;2022-10-16T05:59:05;10.00;;;9.70;;
6580;SDS011;3324;50.796;7.228;2022-10-16T06:01:30;9.30;;;9.10;;
6580;SDS011;3324;50.796;7.228;2022-10-16T06:03:56;9.60;;;9.20;;
6580;SDS011;3324;50.796;7.228;2022-10-16T06:06:24;10.00;;;9.50;;
6580;SDS011;3324;50.796;7.228;2022-10-16T06:08:51;8.70;;;8.50;;
6580;SDS011;3324;50.796;7.228;2022-10-16T06:11:21;10.50;;;10.20;;
6580;SDS011;3324;50.796;7.228;2022-10-16T06:13:52;10.40;;;10.10;;
6580;SDS011;3324;50.796;7.228;2022-10-16T06:16:19;10.80;;;10.40;;
6580;SDS011;3324;50.796;7.228;2022-10-16T06:18:45;10.10;;;9.80;;
6580;SDS011;3324;50.796;7.228;2022-10-16T06:21:13;9.60;;;9.30;;
6580;SDS011;3324;50.796;7.228;2022-10-16T06:23:41;9.60;;;9.30;;
6580;SDS011;3324;50.796;7.228;2022-10-16T06:26:08;9.40;;;9.10;;
6580;SDS011;3324;50.796;7.228;2022-10-16T06:28:36;10.40;;;9.90;;
6580;SDS011;3324;50.796;7.228;2022-10-16T06:31:02;9.40;;;9.10;;
6580;SDS011;3324;50.796;7.228;2022-10-16T06:33:29;9.57;;;9.27;;
6580;SDS011;3324;50.796;7.228;2022-10-16T06:36:05;10.30;;;9.80;;
6580;SDS011;3324;50.796;7.228;2022-10-16T06:38:39;9.50;;;9.20;;
6580;SDS011;3324;50.796;7.228;2022-10-16T06:41:05;9.50;;;9.20;;
6580;SDS011;3324;50.796;7.228;2022-10-16T06:43:32;10.30;;;9.80;;
6580;SDS011;3324;50.796;7.228;2022-10-16T06:46:00;9.55;;;9.25;;
6580;SDS011;3324;50.796;7.228;2022-10-16T06:48:27;9.50;;;9.20;;
6580;SDS011;3324;50.796;7.228;2022-10-16T06:53:30;9.70;;;9.40;;
6580;SDS011;3324;50.796;7.228;2022-10-16T06:55:57;9.60;;;9.30;;
6580;SDS011;3324;50.796;7.228;2022-10-16T06:58:31;9.70;;;9.40;;
6580;SDS011;3324;50.796;7.228;2022-10-16T07:00:56;9.80;;;9.50;;
6580;SDS011;3324;50.796;7.228;2022-10-16T07:03:22;10.68;;;10.18;;
6580;SDS011;3324;50.796;7.228;2022-10-16T07:05:47;9.60;;;9.30;;
6580;SDS011;3324;50.796;7.228;2022-10-16T07:08:13;9.70;;;9.40;;
6580;SDS011;3324;50.796;7.228;2022-10-16T07:10:38;9.50;;;9.20;;
6580;SDS011;3324;50.796;7.228;2022-10-16T07:13:04;10.20;;;9.70;;
6580;SDS011;3324;50.796;7.228;2022-10-16T07:15:30;9.68;;;9.38;;
6580;SDS011;3324;50.796;7.228;2022-10-16T07:17:55;9.70;;;9.40;;
6580;SDS011;3324;50.796;7.228;2022-10-16T07:20:21;10.40;;;9.90;;
6580;SDS011;3324;50.796;7.228;2022-10-16T07:22:47;9.70;;;9.40;;
6580;SDS011;3324;50.796;7.228;2022-10-16T07:25:12;9.60;;;9.30;;
6580;SDS011;3324;50.796;7.228;2022-10-16T07:27:38;10.45;;;9.95;;
6580;SDS011;3324;50.796;7.228;2022-10-16T07:30:04;10.60;;;10.10;;
6580;SDS011;3324;50.796;7.228;2022-10-16T07:32:30;9.75;;;9.45;;
6580;SDS011;3324;50.796;7.228;2022-10-16T07:34:56;9.70;;;9.40;;
6580;SDS011;3324;50.796;7.228;2022-10-16T07:37:22;9.70;;;9.40;;
6580;SDS011;3324;50.796;7.228;2022-10-16T07:39:47;10.10;;;9.80;;
6580;SDS011;3324;50.796;7.228;2022-10-16T07:42:13;10.85;;;10.25;;
6580;SDS011;3324;50.796;7.228;2022-10-16T07:44:39;10.60;;;10.20;;
6580;SDS011;3324;50.796;7.228;2022-10-16T07:47:05;10.70;;;10.30;;
6580;SDS011;3324;50.796;7.228;2022-10-16T07:49:31;10.90;;;10.50;;
6580;SDS011;3324;50.796;7.228;2022-10-16T07:51:58;11.00;;;10.60;;
6580;SDS011;3324;50.796;7.228;2022-10-16T07:54:23;10.50;;;10.10;;
6580;SDS011;3324;50.796;7.228;2022-10-16T07:56:49;11.60;;;10.90;;
6580;SDS011;3324;50.796;7.228;2022-10-16T07:59:15;10.90;;;10.50;;
6580;SDS011;3324;50.796;7.228;2022-10-16T08:01:40;10.85;;;10.45;;
6580;SDS011;3324;50.796;7.228;2022-10-16T08:04:09;11.30;;;10.70;;
6580;SDS011;3324;50.796;7.228;2022-10-16T08:06:38;11.60;;;10.90;;
6580;SDS011;3324;50.796;7.228;2022-10-16T08:09:05;11.60;;;10.90;;
6580;SDS011;3324;50.796;7.228;2022-10-16T08:11:32;10.75;;;10.35;;
6580;SDS011;3324;50.796;7.228;2022-10-16T08:13:58;11.70;;;11.00;;
6580;SDS011;3324;50.796;7.228;2022-10-16T08:16:23;11.20;;;10.50;;
6580;SDS011;3324;50.796;7.228;2022-10-16T08:18:49;10.90;;;10.50;;
6580;SDS011;3324;50.796;7.228;2022-10-16T08:21:21;11.13;;;10.63;;
6580;SDS011;3324;50.796;7.228;2022-10-16T08:23:48;11.40;;;10.90;;
6580;SDS011;3324;50.796;7.228;2022-10-16T08:26:15;11.30;;;10.80;;
6580;SDS011;3324;50.796;7.228;2022-10-16T08:28:40;11.40;;;10.80;;
6580;SDS011;3324;50.796;7.228;2022-10-16T08:31:10;13.00;;;12.20;;
6580;SDS011;3324;50.796;7.228;2022-10-16T08:33:38;11.40;;;10.90;;
6580;SDS011;3324;50.796;7.228;2022-10-16T08:36:06;11.40;;;10.90;;
6580;SDS011;3324;50.796;7.228;2022-10-16T08:38:32;11.50;;;10.80;;
6580;SDS011;3324;50.796;7.228;2022-10-16T08:41:13;11.73;;;11.02;;
6580;SDS011;3324;50.796;7.228;2022-10-16T08:46:47;11.25;;;10.75;;
6580;SDS011;3324;50.796;7.228;2022-10-16T08:49:21;11.10;;;10.60;;
6580;SDS011;3324;50.796;7.228;2022-10-16T08:51:49;11.30;;;10.80;;
6580;SDS011;3324;50.796;7.228;2022-10-16T08:54:27;11.20;;;10.70;;
6580;SDS011;3324;50.796;7.228;2022-10-16T08:56:56;11.10;;;10.60;;
6580;SDS011;3324;50.796;7.228;2022-10-16T08:59:26;9.70;;;9.40;;
6580;SDS011;3324;50.796;7.228;2022-10-16T09:01:51;10.23;;;9.90;;
6580;SDS011;3324;50.796;7.228;2022-10-16T09:07:02;11.10;;;10.50;;
6580;SDS011;3324;50.796;7.228;2022-10-16T09:18:12;9.80;;;9.50;;
6580;SDS011;3324;50.796;7.228;2022-10-16T09:23:25;10.32;;;10.02;;
6580;SDS011;3324;50.796;7.228;2022-10-16T09:25:53;10.40;;;10.10;;
6580;SDS011;3324;50.796;7.228;2022-10-16T09:28:20;11.10;;;10.50;;
6580;SDS011;3324;50.796;7.228;2022-10-16T09:30:46;9.90;;;9.60;;
6580;SDS011;3324;50.796;7.228;2022-10-16T09:33:16;10.80;;;10.40;;
6580;SDS011;3324;50.796;7.228;2022-10-16T09:35:45;11.17;;;10.57;;
6580;SDS011;3324;50.796;7.228;2022-10-16T09:38:24;10.60;;;10.10;;
6580;SDS011;3324;50.796;7.228;2022-10-16T09:40:58;11.10;;;10.50;;
6580;SDS011;3324;50.796;7.228;2022-10-16T09:48:57;10.15;;;9.85;;
6580;SDS011;3324;50.796;7.228;2022-10-16T09:51:26;11.10;;;10.50;;
6580;SDS011;3324;50.796;7.228;2022-10-16T09:54:00;11.30;;;10.80;;
6580;SDS011;3324;50.796;7.228;2022-10-16T09:56:30;10.65;;;10.25;;
6580;SDS011;3324;50.796;7.228;2022-10-16T09:58:58;10.77;;;10.37;;
6580;SDS011;3324;50.796;7.228;2022-10-16T10:01:30;10.30;;;9.80;;
6580;SDS011;3324;50.796;7.228;2022-10-16T10:04:02;10.10;;;9.80;;
6580;SDS011;3324;50.796;7.228;2022-10-16T10:06:30;10.80;;;10.40;;
6580;SDS011;3324;50.796;7.228;2022-10-16T10:09:00;11.10;;;10.70;;
6580;SDS011;3324;50.796;7.228;2022-10-16T10:11:36;11.40;;;10.90;;
6580;SDS011;3324;50.796;7.228;2022-10-16T10:14:06;11.40;;;10.80;;
6580;SDS011;3324;50.796;7.228;2022-10-16T10:16:40;11.30;;;10.80;;
6580;SDS011;3324;50.796;7.228;2022-10-16T10:19:09;11.40;;;10.90;;
6580;SDS011;3324;50.796;7.228;2022-10-16T10:21:42;11.20;;;10.70;;
6580;SDS011;3324;50.796;7.228;2022-10-16T10:24:10;11.60;;;11.00;;
6580;SDS011;3324;50.796;7.228;2022-10-16T10:26:41;11.90;;;11.30;;
6580;SDS011;3324;50.796;7.228;2022-10-16T10:29:34;11.30;;;10.80;;
6580;SDS011;3324;50.796;7.228;2022-10-16T10:32:25;11.80;;;11.20;;
6580;SDS011;3324;50.796;7.228;2022-10-16T10:46:04;11.50;;;10.90;;
6580;SDS011;3324;50.796;7.228;2022-10-16T10:48:49;12.20;;;11.50;;
6580;SDS011;3324;50.796;7.228;2022-10-16T11:05:42;11.30;;;10.70;;
6580;SDS011;3324;50.796;7.228;2022-10-16T11:10:54;12.00;;;11.30;;
6580;SDS011;3324;50.796;7.228;2022-10-16T11:13:40;12.60;;;11.75;;
6580;SDS011;3324;50.796;7.228;2022-10-16T11:16:20;13.50;;;12.50;;
6580;SDS011;3324;50.796;7.228;2022-10-16T11:21:46;13.20;;;12.20;;
6580;SDS011;3324;50.796;7.228;2022-10-16T11:24:22;13.55;;;12.75;;
6580;SDS011;3324;50.796;7.228;2022-10-16T11:26:55;13.00;;;12.10;;
6580;SDS011;3324;50.796;7.228;2022-10-16T11:29:26;12.30;;;11.60;;
6580;SDS011;3324;50.796;7.228;2022-10-16T11:32:00;12.40;;;11.70;;
6580;SDS011;3324;50.796;7.228;2022-10-16T11:34:33;12.27;;;11.57;;
6580;SDS011;3324;50.796;7.228;2022-10-16T11:37:05;12.70;;;12.00;;
6580;SDS011;3324;50.796;7.228;2022-10-16T11:39:37;13.90;;;12.50;;
6580;SDS011;3324;50.796;7.228;2022-10-16T11:42:16;12.90;;;12.00;;
6580;SDS011;3324;50.796;7.228;2022-10-16T11:45:04;11.70;;;11.10;;
6580;SDS011;3324;50.796;7.228;2022-10-16T11:50:33;13.10;;;12.30;;
6580;SDS011;3324;50.796;7.228;2022-10-16T11:54:02;12.55;;;11.85;;
6580;SDS011;3324;50.796;7.228;2022-10-16T11:56:25;12.77;;;11.88;;
6580;SDS011;3324;50.796;7.228;2022-10-16T11:58:54;13.30;;;12.40;;
6580;SDS011;3324;50.796;7.228;2022-10-16T12:01:29;13.60;;;12.60;;
6580;SDS011;3324;50.796;7.228;2022-10-16T12:07:14;13.85;;;12.95;;
6580;SDS011;3324;50.796;7.228;2022-10-16T12:09:47;14.50;;;13.40;;
6580;SDS011;3324;50.796;7.228;2022-10-16T12:12:37;13.00;;;12.10;;
6580;SDS011;3324;50.796;7.228;2022-10-16T12:17:53;12.00;;;11.40;;
6580;SDS011;3324;50.796;7.228;2022-10-16T12:20:21;12.75;;;12.00;;
6580;SDS011;3324;50.796;7.228;2022-10-16T12:22:56;13.60;;;12.60;;
6580;SDS011;3324;50.796;7.228;2022-10-16T12:30:42;13.80;;;12.90;;
6580;SDS011;3324;50.796;7.228;2022-10-16T12:33:20;14.10;;;13.00;;
6580;SDS011;3324;50.796;7.228;2022-10-16T12:35:51;13.20;;;12.40;;
6580;SDS011;3324;50.796;7.228;2022-10-16T12:38:19;12.50;;;11.80;;
6580;SDS011;3324;50.796;7.228;2022-10-16T12:40:54;12.80;;;12.10;;
6580;SDS011;3324;50.796;7.228;2022-10-16T12:43:35;12.70;;;12.00;;
6580;SDS011;3324;50.796;7.228;2022-10-16T12:46:03;14.80;;;13.70;;
6580;SDS011;3324;50.796;7.228;2022-10-16T12:48:32;13.83;;;12.93;;
6580;SDS011;3324;50.796;7.228;2022-10-16T12:51:09;14.50;;;13.40;;
6580;SDS011;3324;50.796;7.228;2022-10-16T12:53:46;15.10;;;13.90;;
6580;SDS011;3324;50.796;7.228;2022-10-16T12:56:24;14.50;;;13.50;;
6580;SDS011;3324;50.796;7.228;2022-10-16T12:59:12;15.60;;;14.10;;
6580;SDS011;3324;50.796;7.228;2022-10-16T13:01:56;13.70;;;12.80;;
6580;SDS011;3324;50.796;7.228;2022-10-16T13:10:47;14.00;;;13.10;;
6580;SDS011;3324;50.796;7.228;2022-10-16T13:13:12;14.70;;;13.70;;
6580;SDS011;3324;50.796;7.228;2022-10-16T13:18:48;14.60;;;13.60;;
6580;SDS011;3324;50.796;7.228;2022-10-16T13:31:58;13.85;;;12.85;;
6580;SDS011;3324;50.796;7.228;2022-10-16T13:34:25;13.30;;;12.50;;
6580;SDS011;3324;50.796;7.228;2022-10-16T13:36:52;13.40;;;12.60;;
6580;SDS011;3324;50.796;7.228;2022-10-16T13:42:09;12.70;;;12.00;;
6580;SDS011;3324;50.796;7.228;2022-10-16T13:44:43;12.90;;;12.20;;
6580;SDS011;3324;50.796;7.228;2022-10-16T13:50:10;13.20;;;12.40;;
6580;SDS011;3324;50.796;7.228;2022-10-16T13:52:37;13.93;;;13.02;;
6580;SDS011;3324;50.796;7.228;2022-10-16T13:55:04;14.30;;;13.40;;
6580;SDS011;3324;50.796;7.228;2022-10-16T13:57:39;14.10;;;13.00;;
6580;SDS011;3324;50.796;7.228;2022-10-16T14:00:17;14.90;;;13.70;;
6580;SDS011;3324;50.796;7.228;2022-10-16T14:02:44;14.30;;;13.20;;
6580;SDS011;3324;50.796;7.228;2022-10-16T14:05:10;14.30;;;13.20;;
6580;SDS011;3324;50.796;7.228;2022-10-16T14:07:39;14.10;;;13.20;;
6580;SDS011;3324;50.796;7.228;2022-10-16T14:10:06;13.90;;;13.00;;
6580;SDS011;3324;50.796;7.228;2022-10-16T14:12:45;14.70;;;13.60;;
6580;SDS011;3324;50.796;7.228;2022-10-16T14:15:18;13.80;;;12.90;;
6580;SDS011;3324;50.796;7.228;2022-10-16T14:17:45;14.30;;;13.20;;
6580;SDS011;3324;50.796;7.228;2022-10-16T14:20:14;13.50;;;12.60;;
6580;SDS011;3324;50.796;7.228;2022-10-16T14:22:41;15.70;;;14.10;;
6580;SDS011;3324;50.796;7.228;2022-10-16T14:27:45;12.80;;;12.00;;
6580;SDS011;3324;50.796;7.228;2022-10-16T14:30:29;13.55;;;12.70;;
6580;SDS011;3324;50.796;7.228;2022-10-16T14:33:02;14.20;;;13.30;;
6580;SDS011;3324;50.796;7.228;2022-10-16T14:35:44;13.30;;;12.30;;
6580;SDS011;3324;50.796;7.228;2022-10-16T14:38:18;13.20;;;12.40;;
6580;SDS011;3324;50.796;7.228;2022-10-16T14:40:46;13.10;;;12.30;;
6580;SDS011;3324;50.796;7.228;2022-10-16T14:43:14;13.90;;;13.00;;
6580;SDS011;3324;50.796;7.228;2022-10-16T14:45:51;13.00;;;12.20;;
6580;SDS011;3324;50.796;7.228;2022-10-16T14:48:19;13.10;;;12.30;;
6580;SDS011;3324;50.796;7.228;2022-10-16T14:50:45;12.70;;;12.00;;
6580;SDS011;3324;50.796;7.228;2022-10-16T14:53:11;13.80;;;12.80;;
6580;SDS011;3324;50.796;7.228;2022-10-16T14:55:41;14.55;;;13.15;;
6580;SDS011;3324;50.796;7.228;2022-10-16T14:58:17;13.60;;;12.77;;
6580;SDS011;3324;50.796;7.228;2022-10-16T15:00:47;13.40;;;12.60;;
6580;SDS011;3324;50.796;7.228;2022-10-16T15:03:14;13.00;;;12.20;;
6580;SDS011;3324;50.796;7.228;2022-10-16T15:05:40;13.10;;;12.30;;
6580;SDS011;3324;50.796;7.228;2022-10-16T15:08:06;14.35;;;13.25;;
6580;SDS011;3324;50.796;7.228;2022-10-16T15:10:33;13.60;;;12.80;;
6580;SDS011;3324;50.796;7.228;2022-10-16T15:13:04;13.40;;;12.60;;
6580;SDS011;3324;50.796;7.228;2022-10-16T15:18:07;14.60;;;13.50;;
6580;SDS011;3324;50.796;7.228;2022-10-16T15:20:34;13.80;;;12.80;;
6580;SDS011;3324;50.796;7.228;2022-10-16T15:23:02;13.60;;;12.80;;
6580;SDS011;3324;50.796;7.228;2022-10-16T15:25:31;12.45;;;11.75;;
6580;SDS011;3324;50.796;7.228;2022-10-16T15:28:00;13.40;;;12.60;;
6580;SDS011;3324;50.796;7.228;2022-10-16T15:30:27;12.80;;;12.00;;
6580;SDS011;3324;50.796;7.228;2022-10-16T15:32:53;13.00;;;12.20;;
6580;SDS011;3324;50.796;7.228;2022-10-16T15:35:19;14.40;;;13.30;;
6580;SDS011;3324;50.796;7.228;2022-10-16T15:37:46;13.90;;;13.00;;
6580;SDS011;3324;50.796;7.228;2022-10-16T15:40:13;13.80;;;12.90;;
6580;SDS011;3324;50.796;7.228;2022-10-16T15:42:39;13.70;;;12.70;;
6580;SDS011;3324;50.796;7.228;2022-10-16T15:45:04;14.60;;;13.50;;
6580;SDS011;3324;50.796;7.228;2022-10-16T15:47:31;13.90;;;13.00;;
6580;SDS011;3324;50.796;7.228;2022-10-16T15:49:57;13.70;;;12.80;;
6580;SDS011;3324;50.796;7.228;2022-10-16T15:52:22;13.50;;;12.70;;
6580;SDS011;3324;50.796;7.228;2022-10-16T15:54:48;14.50;;;13.40;;
6580;SDS011;3324;50.796;7.228;2022-10-16T15:57:14;13.75;;;12.85;;
6580;SDS011;3324;50.796;7.228;2022-10-16T15:59:39;12.80;;;12.00;;
6580;SDS011;3324;50.796;7.228;2022-10-16T16:02:05;14.60;;;13.50;;
6580;SDS011;3324;50.796;7.228;2022-10-16T16:04:31;13.80;;;12.90;;
6580;SDS011;3324;50.796;7.228;2022-10-16T16:06:56;13.60;;;12.80;;
6580;SDS011;3324;50.796;7.228;2022-10-16T16:09:22;14.55;;;13.45;;
6580;SDS011;3324;50.796;7.228;2022-10-16T16:11:48;13.40;;;12.60;;
6580;SDS011;3324;50.796;7.228;2022-10-16T16:14:14;13.60;;;12.77;;
6580;SDS011;3324;50.796;7.228;2022-10-16T16:16:40;13.10;;;12.30;;
6580;SDS011;3324;50.796;7.228;2022-10-16T16:19:06;13.00;;;12.20;;
6580;SDS011;3324;50.796;7.228;2022-10-16T16:21:35;14.00;;;13.00;;
6580;SDS011;3324;50.796;7.228;2022-10-16T16:24:00;13.63;;;12.73;;
6580;SDS011;3324;50.796;7.228;2022-10-16T16:26:32;13.00;;;12.20;;
6580;SDS011;3324;50.796;7.228;2022-10-16T16:29:01;13.60;;;12.60;;
6580;SDS011;3324;50.796;7.228;2022-10-16T16:31:28;13.50;;;12.70;;
6580;SDS011;3324;50.796;7.228;2022-10-16T16:33:55;12.60;;;11.90;;
6580;SDS011;3324;50.796;7.228;2022-10-16T16:36:22;13.50;;;12.60;;
6580;SDS011;3324;50.796;7.228;2022-10-16T16:38:48;13.50;;;12.70;;
6580;SDS011;3324;50.796;7.228;2022-10-16T16:41:14;13.70;;;12.70;;
6580;SDS011;3324;50.796;7.228;2022-10-16T16:43:42;12.90;;;12.10;;
6580;SDS011;3324;50.796;7.228;2022-10-16T16:46:08;12.30;;;11.60;;
6580;SDS011;3324;50.796;7.228;2022-10-16T16:48:34;12.80;;;12.00;;
6580;SDS011;3324;50.796;7.228;2022-10-16T16:51:18;13.60;;;12.60;;
6580;SDS011;3324;50.796;7.228;2022-10-16T16:53:48;13.10;;;12.20;;
6580;SDS011;3324;50.796;7.228;2022-10-16T16:56:15;13.10;;;12.30;;
6580;SDS011;3324;50.796;7.228;2022-10-16T16:58:43;12.20;;;11.50;;
6580;SDS011;3324;50.796;7.228;2022-10-16T17:01:10;13.50;;;12.50;;
6580;SDS011;3324;50.796;7.228;2022-10-16T17:03:36;12.67;;;11.97;;
6580;SDS011;3324;50.796;7.228;2022-10-16T17:06:03;13.10;;;12.30;;
6580;SDS011;3324;50.796;7.228;2022-10-16T17:08:31;12.23;;;11.53;;
6580;SDS011;3324;50.796;7.228;2022-10-16T17:10:57;12.53;;;11.83;;
6580;SDS011;3324;50.796;7.228;2022-10-16T17:13:23;13.25;;;12.25;;
6580;SDS011;3324;50.796;7.228;2022-10-16T17:15:50;13.00;;;12.20;;
6580;SDS011;3324;50.796;7.228;2022-10-16T17:18:16;13.30;;;12.35;;
6580;SDS011;3324;50.796;7.228;2022-10-16T17:20:42;13.00;;;12.10;;
6580;SDS011;3324;50.796;7.228;2022-10-16T17:23:08;12.20;;;11.50;;
6580;SDS011;3324;50.796;7.228;2022-10-16T17:25:36;13.18;;;12.27;;
6580;SDS011;3324;50.796;7.228;2022-10-16T17:28:04;12.40;;;11.70;;
6580;SDS011;3324;50.796;7.228;2022-10-16T17:30:31;11.98;;;11.35;;